sensor_id;sensor_type;location;lat;lon;timestamp;P1;durP1;ratioP1;P2;durP2;ratioP2
43676;SDS011;29275;48.800;18.102;2023-12-20T00:00:25;250.45;;;69.85;;
43676;SDS011;29275;48.800;18.102;2023-12-20T00:03:28;224.00;;;66.38;;
43676;SDS011;29275;48.800;18.102;2023-12-20T00:06:42;126.28;;;58.50;;
43676;SDS011;29275;48.800;18.102;2023-12-20T00:09:45;157.48;;;54.42;;
43676;SDS011;29275;48.800;18.102;2023-12-20T00:12:47;99.82;;;48.67;;
43676;SDS011;29275;48.800;18.102;2023-12-20T00:15:53;173.73;;;61.90;;
43676;SDS011;29275;48.800;18.102;2023-12-20T00:18:56;129.65;;;56.60;;
43676;SDS011;29275;48.800;18.102;2023-12-20T00:21:58;134.32;;;57.33;;
43676;SDS011;29275;48.800;18.102;2023-12-20T00:25:02;117.05;;;55.83;;
43676;SDS011;29275;48.800;18.102;2023-12-20T00:28:05;241.57;;;68.60;;
43676;SDS011;29275;48.800;18.102;2023-12-20T00:31:09;120.72;;;56.00;;
43676;SDS011;29275;48.800;18.102;2023-12-20T00:34:12;192.32;;;63.15;;
43676;SDS011;29275;48.800;18.102;2023-12-20T00:37:15;111.93;;;53.33;;
43676;SDS011;29275;48.800;18.102;2023-12-20T00:40:17;97.00;;;46.50;;
43676;SDS011;29275;48.800;18.102;2023-12-20T00:43:20;82.78;;;38.50;;
43676;SDS011;29275;48.800;18.102;2023-12-20T00:46:23;107.38;;;43.65;;
43676;SDS011;29275;48.800;18.102;2023-12-20T00:49:26;109.97;;;42.90;;
43676;SDS011;29275;48.800;18.102;2023-12-20T00:52:29;185.05;;;49.03;;
43676;SDS011;29275;48.800;18.102;2023-12-20T00:55:35;90.82;;;39.63;;
43676;SDS011;29275;48.800;18.102;2023-12-20T00:58:38;85.53;;;40.22;;
43676;SDS011;29275;48.800;18.102;2023-12-20T01:01:41;98.30;;;40.70;;
43676;SDS011;29275;48.800;18.102;2023-12-20T01:04:44;77.68;;;37.85;;
43676;SDS011;29275;48.800;18.102;2023-12-20T01:07:47;65.20;;;36.00;;
43676;SDS011;29275;48.800;18.102;2023-12-20T01:10:50;63.80;;;32.08;;
43676;SDS011;29275;48.800;18.102;2023-12-20T01:13:52;54.58;;;30.33;;
43676;SDS011;29275;48.800;18.102;2023-12-20T01:16:55;61.90;;;28.13;;
43676;SDS011;29275;48.800;18.102;2023-12-20T01:19:58;51.63;;;27.00;;
43676;SDS011;29275;48.800;18.102;2023-12-20T01:23:01;56.85;;;28.98;;
43676;SDS011;29275;48.800;18.102;2023-12-20T01:26:04;80.60;;;33.30;;
43676;SDS011;29275;48.800;18.102;2023-12-20T01:29:07;105.85;;;32.78;;
43676;SDS011;29275;48.800;18.102;2023-12-20T01:32:10;95.78;;;31.10;;
43676;SDS011;29275;48.800;18.102;2023-12-20T01:35:13;135.52;;;40.97;;
43676;SDS011;29275;48.800;18.102;2023-12-20T01:38:16;71.30;;;35.75;;
43676;SDS011;29275;48.800;18.102;2023-12-20T01:41:21;74.82;;;36.42;;
43676;SDS011;29275;48.800;18.102;2023-12-20T01:44:24;100.43;;;37.55;;
43676;SDS011;29275;48.800;18.102;2023-12-20T01:47:27;114.00;;;40.80;;
43676;SDS011;29275;48.800;18.102;2023-12-20T01:50:29;90.38;;;40.40;;
43676;SDS011;29275;48.800;18.102;2023-12-20T01:53:33;105.53;;;42.40;;
43676;SDS011;29275;48.800;18.102;2023-12-20T01:56:37;215.52;;;48.33;;
43676;SDS011;29275;48.800;18.102;2023-12-20T01:59:40;94.50;;;39.90;;
43676;SDS011;29275;48.800;18.102;2023-12-20T02:02:43;143.60;;;45.22;;
43676;SDS011;29275;48.800;18.102;2023-12-20T02:05:46;122.03;;;44.22;;
43676;SDS011;29275;48.800;18.102;2023-12-20T02:08:49;134.48;;;41.83;;
43676;SDS011;29275;48.800;18.102;2023-12-20T02:11:52;116.90;;;41.70;;
43676;SDS011;29275;48.800;18.102;2023-12-20T02:14:55;76.28;;;40.67;;
43676;SDS011;29275;48.800;18.102;2023-12-20T02:17:58;91.88;;;39.45;;
43676;SDS011;29275;48.800;18.102;2023-12-20T02:21:03;93.78;;;38.50;;
43676;SDS011;29275;48.800;18.102;2023-12-20T02:24:07;68.65;;;37.00;;
43676;SDS011;29275;48.800;18.102;2023-12-20T02:27:10;67.68;;;33.78;;
43676;SDS011;29275;48.800;18.102;2023-12-20T02:30:13;95.28;;;33.33;;
43676;SDS011;29275;48.800;18.102;2023-12-20T02:33:15;86.40;;;36.25;;
43676;SDS011;29275;48.800;18.102;2023-12-20T02:36:18;203.02;;;45.55;;
43676;SDS011;29275;48.800;18.102;2023-12-20T02:39:21;193.30;;;49.03;;
43676;SDS011;29275;48.800;18.102;2023-12-20T02:42:24;101.25;;;41.35;;
43676;SDS011;29275;48.800;18.102;2023-12-20T02:45:27;123.10;;;43.67;;
43676;SDS011;29275;48.800;18.102;2023-12-20T02:48:30;103.65;;;41.85;;
43676;SDS011;29275;48.800;18.102;2023-12-20T02:51:33;72.93;;;35.63;;
43676;SDS011;29275;48.800;18.102;2023-12-20T02:54:36;80.38;;;35.70;;
43676;SDS011;29275;48.800;18.102;2023-12-20T02:57:38;76.50;;;34.95;;
43676;SDS011;29275;48.800;18.102;2023-12-20T03:00:45;69.82;;;36.15;;
43676;SDS011;29275;48.800;18.102;2023-12-20T03:03:48;67.85;;;33.95;;
43676;SDS011;29275;48.800;18.102;2023-12-20T03:06:50;180.10;;;47.78;;
43676;SDS011;29275;48.800;18.102;2023-12-20T03:09:53;81.20;;;39.30;;
43676;SDS011;29275;48.800;18.102;2023-12-20T03:13:16;83.63;;;37.40;;
43676;SDS011;29275;48.800;18.102;2023-12-20T03:16:19;84.68;;;33.65;;
43676;SDS011;29275;48.800;18.102;2023-12-20T03:19:22;68.93;;;30.45;;
43676;SDS011;29275;48.800;18.102;2023-12-20T03:22:25;77.70;;;28.55;;
43676;SDS011;29275;48.800;18.102;2023-12-20T03:25:28;112.47;;;30.90;;
43676;SDS011;29275;48.800;18.102;2023-12-20T03:28:31;51.53;;;27.10;;
43676;SDS011;29275;48.800;18.102;2023-12-20T03:31:33;102.93;;;27.85;;
43676;SDS011;29275;48.800;18.102;2023-12-20T03:34:36;69.15;;;26.48;;
43676;SDS011;29275;48.800;18.102;2023-12-20T03:37:39;81.93;;;29.02;;
43676;SDS011;29275;48.800;18.102;2023-12-20T03:40:42;103.47;;;29.77;;
43676;SDS011;29275;48.800;18.102;2023-12-20T03:43:45;57.88;;;27.17;;
43676;SDS011;29275;48.800;18.102;2023-12-20T03:46:48;89.93;;;27.80;;
43676;SDS011;29275;48.800;18.102;2023-12-20T03:49:51;70.90;;;28.65;;
43676;SDS011;29275;48.800;18.102;2023-12-20T03:52:54;115.80;;;27.25;;
43676;SDS011;29275;48.800;18.102;2023-12-20T03:55:57;129.90;;;30.48;;
43676;SDS011;29275;48.800;18.102;2023-12-20T03:58:59;142.82;;;30.95;;
43676;SDS011;29275;48.800;18.102;2023-12-20T04:02:02;50.90;;;24.73;;
43676;SDS011;29275;48.800;18.102;2023-12-20T04:05:06;64.22;;;29.67;;
43676;SDS011;29275;48.800;18.102;2023-12-20T04:08:11;46.92;;;25.30;;
43676;SDS011;29275;48.800;18.102;2023-12-20T04:11:14;52.22;;;23.95;;
43676;SDS011;29275;48.800;18.102;2023-12-20T04:14:16;48.05;;;24.05;;
43676;SDS011;29275;48.800;18.102;2023-12-20T04:17:19;42.70;;;23.60;;
43676;SDS011;29275;48.800;18.102;2023-12-20T04:20:22;42.55;;;24.25;;
43676;SDS011;29275;48.800;18.102;2023-12-20T04:23:25;46.30;;;24.25;;
43676;SDS011;29275;48.800;18.102;2023-12-20T04:26:28;48.03;;;26.08;;
43676;SDS011;29275;48.800;18.102;2023-12-20T04:29:31;61.10;;;30.73;;
43676;SDS011;29275;48.800;18.102;2023-12-20T04:32:34;51.30;;;26.85;;
43676;SDS011;29275;48.800;18.102;2023-12-20T04:35:37;52.08;;;25.73;;
43676;SDS011;29275;48.800;18.102;2023-12-20T04:38:40;52.50;;;27.58;;
43676;SDS011;29275;48.800;18.102;2023-12-20T04:41:42;50.88;;;27.70;;
43676;SDS011;29275;48.800;18.102;2023-12-20T04:44:45;53.20;;;29.70;;
43676;SDS011;29275;48.800;18.102;2023-12-20T04:47:48;61.47;;;30.85;;
43676;SDS011;29275;48.800;18.102;2023-12-20T04:50:51;54.55;;;30.45;;
43676;SDS011;29275;48.800;18.102;2023-12-20T04:53:54;55.08;;;29.10;;
43676;SDS011;29275;48.800;18.102;2023-12-20T04:56:56;53.92;;;31.02;;
43676;SDS011;29275;48.800;18.102;2023-12-20T04:59:59;62.58;;;32.78;;
43676;SDS011;29275;48.800;18.102;2023-12-20T05:03:02;66.93;;;35.10;;
43676;SDS011;29275;48.800;18.102;2023-12-20T05:06:06;57.55;;;30.75;;
43676;SDS011;29275;48.800;18.102;2023-12-20T05:09:09;54.33;;;30.77;;
43676;SDS011;29275;48.800;18.102;2023-12-20T05:12:11;58.15;;;31.45;;
43676;SDS011;29275;48.800;18.102;2023-12-20T05:15:14;72.88;;;36.35;;
43676;SDS011;29275;48.800;18.102;2023-12-20T05:18:17;82.05;;;40.67;;
43676;SDS011;29275;48.800;18.102;2023-12-20T05:21:20;79.50;;;41.75;;
43676;SDS011;29275;48.800;18.102;2023-12-20T05:24:23;81.70;;;42.53;;
43676;SDS011;29275;48.800;18.102;2023-12-20T05:27:26;87.75;;;41.33;;
43676;SDS011;29275;48.800;18.102;2023-12-20T05:30:28;76.68;;;39.72;;
43676;SDS011;29275;48.800;18.102;2023-12-20T05:33:31;63.53;;;33.05;;
43676;SDS011;29275;48.800;18.102;2023-12-20T05:36:34;57.90;;;30.42;;
43676;SDS011;29275;48.800;18.102;2023-12-20T05:39:38;48.22;;;27.05;;
43676;SDS011;29275;48.800;18.102;2023-12-20T05:42:41;44.38;;;24.75;;
43676;SDS011;29275;48.800;18.102;2023-12-20T05:45:44;45.17;;;23.60;;
43676;SDS011;29275;48.800;18.102;2023-12-20T05:48:47;53.03;;;27.40;;
43676;SDS011;29275;48.800;18.102;2023-12-20T05:51:50;55.22;;;29.48;;
43676;SDS011;29275;48.800;18.102;2023-12-20T05:54:53;83.97;;;41.42;;
43676;SDS011;29275;48.800;18.102;2023-12-20T05:57:56;66.57;;;33.83;;
43676;SDS011;29275;48.800;18.102;2023-12-20T06:00:59;80.85;;;39.05;;
43676;SDS011;29275;48.800;18.102;2023-12-20T06:04:02;62.97;;;33.35;;
43676;SDS011;29275;48.800;18.102;2023-12-20T06:07:06;46.92;;;25.95;;
43676;SDS011;29275;48.800;18.102;2023-12-20T06:10:09;37.80;;;22.90;;
43676;SDS011;29275;48.800;18.102;2023-12-20T06:13:12;52.20;;;27.15;;
43676;SDS011;29275;48.800;18.102;2023-12-20T06:16:16;67.13;;;35.40;;
43676;SDS011;29275;48.800;18.102;2023-12-20T06:19:19;81.38;;;42.58;;
43676;SDS011;29275;48.800;18.102;2023-12-20T06:22:22;113.30;;;57.88;;
43676;SDS011;29275;48.800;18.102;2023-12-20T06:25:25;127.90;;;64.90;;
43676;SDS011;29275;48.800;18.102;2023-12-20T06:28:28;119.03;;;59.60;;
43676;SDS011;29275;48.800;18.102;2023-12-20T06:31:30;103.40;;;55.47;;
43676;SDS011;29275;48.800;18.102;2023-12-20T06:34:36;105.03;;;54.47;;
43676;SDS011;29275;48.800;18.102;2023-12-20T06:37:40;100.57;;;52.10;;
43676;SDS011;29275;48.800;18.102;2023-12-20T06:40:45;94.03;;;50.20;;
43676;SDS011;29275;48.800;18.102;2023-12-20T06:43:48;105.55;;;54.58;;
43676;SDS011;29275;48.800;18.102;2023-12-20T06:46:52;90.15;;;49.67;;
43676;SDS011;29275;48.800;18.102;2023-12-20T06:49:54;86.53;;;48.03;;
43676;SDS011;29275;48.800;18.102;2023-12-20T06:52:57;90.72;;;46.92;;
43676;SDS011;29275;48.800;18.102;2023-12-20T06:56:00;90.50;;;44.80;;
43676;SDS011;29275;48.800;18.102;2023-12-20T06:59:03;93.68;;;50.75;;
43676;SDS011;29275;48.800;18.102;2023-12-20T07:02:08;94.82;;;47.30;;
43676;SDS011;29275;48.800;18.102;2023-12-20T07:05:16;95.20;;;50.13;;
43676;SDS011;29275;48.800;18.102;2023-12-20T07:08:22;107.50;;;52.75;;
43676;SDS011;29275;48.800;18.102;2023-12-20T07:11:27;111.07;;;54.75;;
43676;SDS011;29275;48.800;18.102;2023-12-20T07:14:31;83.70;;;46.60;;
43676;SDS011;29275;48.800;18.102;2023-12-20T07:17:34;83.05;;;45.67;;
43676;SDS011;29275;48.800;18.102;2023-12-20T07:20:37;83.45;;;42.90;;
43676;SDS011;29275;48.800;18.102;2023-12-20T07:23:43;70.95;;;38.63;;
43676;SDS011;29275;48.800;18.102;2023-12-20T07:26:47;79.88;;;43.45;;
43676;SDS011;29275;48.800;18.102;2023-12-20T07:29:50;83.85;;;46.28;;
43676;SDS011;29275;48.800;18.102;2023-12-20T07:32:54;82.13;;;44.95;;
43676;SDS011;29275;48.800;18.102;2023-12-20T07:35:58;106.20;;;54.35;;
43676;SDS011;29275;48.800;18.102;2023-12-20T07:39:02;110.78;;;54.65;;
43676;SDS011;29275;48.800;18.102;2023-12-20T07:42:08;109.57;;;57.95;;
43676;SDS011;29275;48.800;18.102;2023-12-20T07:45:11;108.75;;;56.30;;
43676;SDS011;29275;48.800;18.102;2023-12-20T07:48:15;116.55;;;59.85;;
43676;SDS011;29275;48.800;18.102;2023-12-20T07:51:18;120.47;;;61.92;;
43676;SDS011;29275;48.800;18.102;2023-12-20T07:54:23;111.57;;;58.17;;
43676;SDS011;29275;48.800;18.102;2023-12-20T07:57:29;99.93;;;55.35;;
43676;SDS011;29275;48.800;18.102;2023-12-20T08:00:33;102.17;;;53.20;;
43676;SDS011;29275;48.800;18.102;2023-12-20T08:03:37;77.35;;;45.60;;
43676;SDS011;29275;48.800;18.102;2023-12-20T08:06:41;77.57;;;44.08;;
43676;SDS011;29275;48.800;18.102;2023-12-20T08:09:45;77.72;;;43.42;;
43676;SDS011;29275;48.800;18.102;2023-12-20T08:12:48;56.45;;;30.88;;
43676;SDS011;29275;48.800;18.102;2023-12-20T08:15:51;52.67;;;26.92;;
43676;SDS011;29275;48.800;18.102;2023-12-20T08:18:54;44.33;;;25.90;;
43676;SDS011;29275;48.800;18.102;2023-12-20T08:21:57;65.05;;;36.05;;
43676;SDS011;29275;48.800;18.102;2023-12-20T08:25:00;73.60;;;40.58;;
43676;SDS011;29275;48.800;18.102;2023-12-20T08:28:03;77.88;;;42.03;;
43676;SDS011;29275;48.800;18.102;2023-12-20T08:31:13;71.60;;;38.33;;
43676;SDS011;29275;48.800;18.102;2023-12-20T08:34:16;59.38;;;34.25;;
43676;SDS011;29275;48.800;18.102;2023-12-20T08:37:20;62.22;;;34.13;;
43676;SDS011;29275;48.800;18.102;2023-12-20T08:40:23;51.83;;;27.85;;
43676;SDS011;29275;48.800;18.102;2023-12-20T08:43:25;61.83;;;32.92;;
43676;SDS011;29275;48.800;18.102;2023-12-20T08:46:29;136.30;;;76.25;;
43676;SDS011;29275;48.800;18.102;2023-12-20T08:49:32;126.25;;;70.82;;
43676;SDS011;29275;48.800;18.102;2023-12-20T08:52:35;111.95;;;60.42;;
43676;SDS011;29275;48.800;18.102;2023-12-20T08:55:38;93.47;;;51.58;;
43676;SDS011;29275;48.800;18.102;2023-12-20T08:58:41;84.40;;;46.92;;
43676;SDS011;29275;48.800;18.102;2023-12-20T09:01:44;65.65;;;39.65;;
43676;SDS011;29275;48.800;18.102;2023-12-20T09:04:47;62.40;;;34.72;;
43676;SDS011;29275;48.800;18.102;2023-12-20T09:07:50;54.15;;;30.48;;
43676;SDS011;29275;48.800;18.102;2023-12-20T09:10:54;53.90;;;29.95;;
43676;SDS011;29275;48.800;18.102;2023-12-20T09:14:00;139.15;;;70.60;;
43676;SDS011;29275;48.800;18.102;2023-12-20T09:17:03;107.32;;;53.83;;
43676;SDS011;29275;48.800;18.102;2023-12-20T09:20:06;91.55;;;54.67;;
43676;SDS011;29275;48.800;18.102;2023-12-20T09:23:11;68.07;;;40.50;;
43676;SDS011;29275;48.800;18.102;2023-12-20T09:26:14;110.60;;;69.03;;
43676;SDS011;29275;48.800;18.102;2023-12-20T09:29:17;70.25;;;37.80;;
43676;SDS011;29275;48.800;18.102;2023-12-20T09:32:21;70.93;;;36.00;;
43676;SDS011;29275;48.800;18.102;2023-12-20T09:35:24;77.45;;;45.05;;
43676;SDS011;29275;48.800;18.102;2023-12-20T09:38:29;151.80;;;79.28;;
43676;SDS011;29275;48.800;18.102;2023-12-20T09:41:36;82.25;;;46.70;;
43676;SDS011;29275;48.800;18.102;2023-12-20T09:44:40;106.00;;;53.35;;
43676;SDS011;29275;48.800;18.102;2023-12-20T09:47:49;64.03;;;35.78;;
43676;SDS011;29275;48.800;18.102;2023-12-20T09:50:53;68.20;;;35.70;;
43676;SDS011;29275;48.800;18.102;2023-12-20T09:53:57;53.58;;;31.42;;
43676;SDS011;29275;48.800;18.102;2023-12-20T09:57:02;45.85;;;26.45;;
43676;SDS011;29275;48.800;18.102;2023-12-20T10:00:05;46.83;;;26.75;;
43676;SDS011;29275;48.800;18.102;2023-12-20T10:03:13;48.13;;;26.63;;
43676;SDS011;29275;48.800;18.102;2023-12-20T10:06:17;46.67;;;25.13;;
43676;SDS011;29275;48.800;18.102;2023-12-20T10:09:20;45.03;;;23.58;;
43676;SDS011;29275;48.800;18.102;2023-12-20T10:12:23;57.28;;;30.92;;
43676;SDS011;29275;48.800;18.102;2023-12-20T10:15:27;58.53;;;30.73;;
43676;SDS011;29275;48.800;18.102;2023-12-20T10:18:31;51.47;;;27.88;;
43676;SDS011;29275;48.800;18.102;2023-12-20T10:21:43;53.47;;;29.00;;
43676;SDS011;29275;48.800;18.102;2023-12-20T10:24:47;46.67;;;26.52;;
43676;SDS011;29275;48.800;18.102;2023-12-20T10:27:50;50.03;;;24.33;;
43676;SDS011;29275;48.800;18.102;2023-12-20T10:30:55;48.47;;;27.20;;
43676;SDS011;29275;48.800;18.102;2023-12-20T10:34:02;49.97;;;27.70;;
43676;SDS011;29275;48.800;18.102;2023-12-20T10:37:06;47.00;;;25.70;;
43676;SDS011;29275;48.800;18.102;2023-12-20T10:40:09;42.83;;;23.48;;
43676;SDS011;29275;48.800;18.102;2023-12-20T10:43:13;48.50;;;25.38;;
43676;SDS011;29275;48.800;18.102;2023-12-20T10:46:19;40.10;;;23.33;;
43676;SDS011;29275;48.800;18.102;2023-12-20T10:49:22;44.25;;;22.17;;
43676;SDS011;29275;48.800;18.102;2023-12-20T10:52:26;47.20;;;24.90;;
43676;SDS011;29275;48.800;18.102;2023-12-20T10:55:30;53.70;;;27.48;;
43676;SDS011;29275;48.800;18.102;2023-12-20T10:58:33;42.45;;;24.95;;
43676;SDS011;29275;48.800;18.102;2023-12-20T11:01:38;57.20;;;29.92;;
43676;SDS011;29275;48.800;18.102;2023-12-20T11:07:58;58.40;;;32.45;;
43676;SDS011;29275;48.800;18.102;2023-12-20T11:14:18;66.97;;;33.63;;
43676;SDS011;29275;48.800;18.102;2023-12-20T11:17:25;55.58;;;29.92;;
43676;SDS011;29275;48.800;18.102;2023-12-20T11:20:37;44.40;;;26.42;;
43676;SDS011;29275;48.800;18.102;2023-12-20T11:23:42;38.00;;;21.20;;
43676;SDS011;29275;48.800;18.102;2023-12-20T11:26:48;24.35;;;12.65;;
43676;SDS011;29275;48.800;18.102;2023-12-20T11:29:51;19.30;;;11.40;;
43676;SDS011;29275;48.800;18.102;2023-12-20T11:32:55;17.02;;;9.80;;
43676;SDS011;29275;48.800;18.102;2023-12-20T11:36:02;16.13;;;9.82;;
43676;SDS011;29275;48.800;18.102;2023-12-20T11:39:06;16.40;;;9.73;;
43676;SDS011;29275;48.800;18.102;2023-12-20T11:42:14;22.40;;;11.48;;
43676;SDS011;29275;48.800;18.102;2023-12-20T11:45:20;22.15;;;13.10;;
43676;SDS011;29275;48.800;18.102;2023-12-20T11:48:30;23.13;;;12.68;;
43676;SDS011;29275;48.800;18.102;2023-12-20T11:51:34;23.42;;;13.02;;
43676;SDS011;29275;48.800;18.102;2023-12-20T11:54:37;22.65;;;12.65;;
43676;SDS011;29275;48.800;18.102;2023-12-20T11:57:41;20.55;;;12.13;;
43676;SDS011;29275;48.800;18.102;2023-12-20T12:00:45;20.02;;;10.60;;
43676;SDS011;29275;48.800;18.102;2023-12-20T12:03:48;19.95;;;11.57;;
43676;SDS011;29275;48.800;18.102;2023-12-20T12:06:51;16.67;;;9.80;;
43676;SDS011;29275;48.800;18.102;2023-12-20T12:09:54;12.00;;;7.90;;
43676;SDS011;29275;48.800;18.102;2023-12-20T12:12:58;13.73;;;7.30;;
43676;SDS011;29275;48.800;18.102;2023-12-20T12:16:01;7.85;;;4.85;;
43676;SDS011;29275;48.800;18.102;2023-12-20T12:19:05;5.82;;;3.95;;
43676;SDS011;29275;48.800;18.102;2023-12-20T12:22:12;8.18;;;5.50;;
43676;SDS011;29275;48.800;18.102;2023-12-20T12:25:19;8.63;;;4.65;;
43676;SDS011;29275;48.800;18.102;2023-12-20T12:28:28;5.88;;;4.00;;
43676;SDS011;29275;48.800;18.102;2023-12-20T12:31:31;5.63;;;4.47;;
43676;SDS011;29275;48.800;18.102;2023-12-20T12:34:34;4.85;;;2.60;;
43676;SDS011;29275;48.800;18.102;2023-12-20T12:37:38;4.60;;;3.33;;
43676;SDS011;29275;48.800;18.102;2023-12-20T12:40:46;5.53;;;3.30;;
43676;SDS011;29275;48.800;18.102;2023-12-20T12:43:49;4.38;;;3.03;;
43676;SDS011;29275;48.800;18.102;2023-12-20T12:46:53;3.58;;;2.50;;
43676;SDS011;29275;48.800;18.102;2023-12-20T12:49:57;5.40;;;2.95;;
43676;SDS011;29275;48.800;18.102;2023-12-20T12:53:02;5.65;;;2.78;;
43676;SDS011;29275;48.800;18.102;2023-12-20T12:56:05;4.00;;;2.53;;
43676;SDS011;29275;48.800;18.102;2023-12-20T12:59:12;6.82;;;3.40;;
43676;SDS011;29275;48.800;18.102;2023-12-20T13:02:15;8.20;;;5.85;;
43676;SDS011;29275;48.800;18.102;2023-12-20T13:05:19;10.63;;;8.15;;
43676;SDS011;29275;48.800;18.102;2023-12-20T13:08:22;9.52;;;7.68;;
43676;SDS011;29275;48.800;18.102;2023-12-20T13:11:27;11.27;;;9.05;;
43676;SDS011;29275;48.800;18.102;2023-12-20T13:14:36;4.30;;;2.28;;
43676;SDS011;29275;48.800;18.102;2023-12-20T13:17:40;3.60;;;1.95;;
43676;SDS011;29275;48.800;18.102;2023-12-20T13:20:49;4.68;;;2.85;;
43676;SDS011;29275;48.800;18.102;2023-12-20T13:24:19;3.78;;;2.47;;
43676;SDS011;29275;48.800;18.102;2023-12-20T13:27:30;6.18;;;3.75;;
43676;SDS011;29275;48.800;18.102;2023-12-20T13:30:34;7.05;;;4.68;;
43676;SDS011;29275;48.800;18.102;2023-12-20T13:33:38;8.20;;;5.30;;
43676;SDS011;29275;48.800;18.102;2023-12-20T13:36:41;7.43;;;4.65;;
43676;SDS011;29275;48.800;18.102;2023-12-20T13:39:48;6.13;;;3.47;;
43676;SDS011;29275;48.800;18.102;2023-12-20T13:42:52;7.82;;;4.65;;
43676;SDS011;29275;48.800;18.102;2023-12-20T13:45:59;5.75;;;3.38;;
43676;SDS011;29275;48.800;18.102;2023-12-20T13:49:03;18.38;;;13.48;;
43676;SDS011;29275;48.800;18.102;2023-12-20T13:52:08;6.75;;;5.25;;
43676;SDS011;29275;48.800;18.102;2023-12-20T13:55:13;11.63;;;9.63;;
43676;SDS011;29275;48.800;18.102;2023-12-20T13:58:20;7.95;;;4.63;;
43676;SDS011;29275;48.800;18.102;2023-12-20T14:01:23;4.93;;;3.30;;
43676;SDS011;29275;48.800;18.102;2023-12-20T14:04:27;5.47;;;3.00;;
43676;SDS011;29275;48.800;18.102;2023-12-20T14:07:44;4.38;;;2.50;;
43676;SDS011;29275;48.800;18.102;2023-12-20T14:10:48;4.13;;;2.70;;
43676;SDS011;29275;48.800;18.102;2023-12-20T14:13:52;6.70;;;4.50;;
43676;SDS011;29275;48.800;18.102;2023-12-20T14:16:55;6.97;;;3.35;;
43676;SDS011;29275;48.800;18.102;2023-12-20T14:20:00;6.10;;;3.80;;
43676;SDS011;29275;48.800;18.102;2023-12-20T14:23:04;4.72;;;2.53;;
43676;SDS011;29275;48.800;18.102;2023-12-20T14:26:08;4.68;;;2.85;;
43676;SDS011;29275;48.800;18.102;2023-12-20T14:29:19;3.30;;;1.80;;
43676;SDS011;29275;48.800;18.102;2023-12-20T14:32:25;3.25;;;1.92;;
43676;SDS011;29275;48.800;18.102;2023-12-20T14:35:30;2.15;;;1.48;;
43676;SDS011;29275;48.800;18.102;2023-12-20T14:38:34;5.78;;;3.38;;
43676;SDS011;29275;48.800;18.102;2023-12-20T14:41:38;2.25;;;1.50;;
43676;SDS011;29275;48.800;18.102;2023-12-20T14:44:43;2.42;;;1.50;;
43676;SDS011;29275;48.800;18.102;2023-12-20T14:47:46;3.78;;;1.88;;
43676;SDS011;29275;48.800;18.102;2023-12-20T14:50:51;1.92;;;1.20;;
43676;SDS011;29275;48.800;18.102;2023-12-20T14:53:55;3.05;;;1.52;;
43676;SDS011;29275;48.800;18.102;2023-12-20T14:56:59;2.47;;;1.50;;
43676;SDS011;29275;48.800;18.102;2023-12-20T15:00:07;1.45;;;1.00;;
43676;SDS011;29275;48.800;18.102;2023-12-20T15:03:10;2.70;;;1.60;;
43676;SDS011;29275;48.800;18.102;2023-12-20T15:06:14;2.10;;;1.60;;
43676;SDS011;29275;48.800;18.102;2023-12-20T15:09:18;2.30;;;1.50;;
43676;SDS011;29275;48.800;18.102;2023-12-20T15:12:21;2.78;;;1.38;;
43676;SDS011;29275;48.800;18.102;2023-12-20T15:15:25;2.28;;;1.10;;
43676;SDS011;29275;48.800;18.102;2023-12-20T15:18:31;2.22;;;1.30;;
43676;SDS011;29275;48.800;18.102;2023-12-20T15:21:36;1.63;;;1.10;;
43676;SDS011;29275;48.800;18.102;2023-12-20T15:24:47;2.58;;;1.42;;
43676;SDS011;29275;48.800;18.102;2023-12-20T15:27:50;2.40;;;1.27;;
43676;SDS011;29275;48.800;18.102;2023-12-20T15:30:57;2.35;;;1.10;;
43676;SDS011;29275;48.800;18.102;2023-12-20T15:34:00;2.13;;;1.20;;
43676;SDS011;29275;48.800;18.102;2023-12-20T15:37:04;2.28;;;1.20;;
43676;SDS011;29275;48.800;18.102;2023-12-20T15:40:08;2.85;;;1.50;;
43676;SDS011;29275;48.800;18.102;2023-12-20T15:43:15;2.60;;;1.65;;
43676;SDS011;29275;48.800;18.102;2023-12-20T15:46:18;2.67;;;1.60;;
43676;SDS011;29275;48.800;18.102;2023-12-20T15:49:21;2.20;;;1.50;;
43676;SDS011;29275;48.800;18.102;2023-12-20T15:52:24;1.85;;;1.38;;
43676;SDS011;29275;48.800;18.102;2023-12-20T15:55:29;1.95;;;1.30;;
43676;SDS011;29275;48.800;18.102;2023-12-20T15:58:32;2.10;;;1.48;;
43676;SDS011;29275;48.800;18.102;2023-12-20T16:01:37;2.60;;;1.50;;
43676;SDS011;29275;48.800;18.102;2023-12-20T16:04:40;5.70;;;3.20;;
43676;SDS011;29275;48.800;18.102;2023-12-20T16:07:44;2.05;;;1.30;;
43676;SDS011;29275;48.800;18.102;2023-12-20T16:10:48;4.80;;;1.45;;
43676;SDS011;29275;48.800;18.102;2023-12-20T16:13:52;2.05;;;1.27;;
43676;SDS011;29275;48.800;18.102;2023-12-20T16:16:55;3.90;;;1.58;;
43676;SDS011;29275;48.800;18.102;2023-12-20T16:20:00;2.45;;;1.35;;
43676;SDS011;29275;48.800;18.102;2023-12-20T16:23:04;2.42;;;1.52;;
43676;SDS011;29275;48.800;18.102;2023-12-20T16:26:08;2.72;;;2.03;;
43676;SDS011;29275;48.800;18.102;2023-12-20T16:29:11;2.17;;;1.13;;
43676;SDS011;29275;48.800;18.102;2023-12-20T16:32:16;1.92;;;1.23;;
43676;SDS011;29275;48.800;18.102;2023-12-20T16:35:19;2.30;;;1.17;;
43676;SDS011;29275;48.800;18.102;2023-12-20T16:38:25;2.40;;;1.27;;
43676;SDS011;29275;48.800;18.102;2023-12-20T16:41:28;3.00;;;1.67;;
43676;SDS011;29275;48.800;18.102;2023-12-20T16:44:32;2.35;;;1.73;;
43676;SDS011;29275;48.800;18.102;2023-12-20T16:47:35;3.35;;;1.90;;
43676;SDS011;29275;48.800;18.102;2023-12-20T16:50:40;2.17;;;1.45;;
43676;SDS011;29275;48.800;18.102;2023-12-20T16:53:43;2.50;;;1.40;;
43676;SDS011;29275;48.800;18.102;2023-12-20T16:56:46;24.05;;;10.02;;
43676;SDS011;29275;48.800;18.102;2023-12-20T16:59:49;16.23;;;10.88;;
43676;SDS011;29275;48.800;18.102;2023-12-20T17:02:53;14.85;;;9.90;;
43676;SDS011;29275;48.800;18.102;2023-12-20T17:05:56;7.47;;;5.13;;
43676;SDS011;29275;48.800;18.102;2023-12-20T17:08:59;5.57;;;2.60;;
43676;SDS011;29275;48.800;18.102;2023-12-20T17:12:03;6.28;;;4.13;;
43676;SDS011;29275;48.800;18.102;2023-12-20T17:15:06;6.32;;;4.28;;
43676;SDS011;29275;48.800;18.102;2023-12-20T17:18:10;4.90;;;3.95;;
43676;SDS011;29275;48.800;18.102;2023-12-20T17:21:14;5.53;;;4.05;;
43676;SDS011;29275;48.800;18.102;2023-12-20T17:24:19;2.90;;;2.05;;
43676;SDS011;29275;48.800;18.102;2023-12-20T17:27:23;1.55;;;1.10;;
43676;SDS011;29275;48.800;18.102;2023-12-20T17:30:28;2.47;;;1.92;;
43676;SDS011;29275;48.800;18.102;2023-12-20T17:33:32;4.47;;;2.50;;
43676;SDS011;29275;48.800;18.102;2023-12-20T17:36:36;3.92;;;2.05;;
43676;SDS011;29275;48.800;18.102;2023-12-20T17:39:42;3.90;;;2.20;;
43676;SDS011;29275;48.800;18.102;2023-12-20T17:42:46;9.85;;;5.78;;
43676;SDS011;29275;48.800;18.102;2023-12-20T17:45:51;5.90;;;3.33;;
43676;SDS011;29275;48.800;18.102;2023-12-20T17:48:55;5.70;;;3.17;;
43676;SDS011;29275;48.800;18.102;2023-12-20T17:51:59;4.28;;;1.58;;